Terminal Aerodrome Forecast
Issued by NWS Pueblo, CO

Home | Current Version | Previous Version | Text Only | Print | Product List | Glossary On
Versions: 1 2 3 4 5 6 7 8 9 10 11 12 13 14 15 16 17 18 19 20 21 22 23 24 25 26 27 28 29 30 31 32 33 34 35 36
000
FTUS45 KPUB 301723
TAFCOS
TAF
KCOS 301723Z 3018/3118 VRB04KT P6SM OVC110
     FM302100 VRB06KT P6SM VCSH SCT040 OVC070
     FM310100 36007KT P6SM VCSH SCT030 OVC050
     FM311200 VRB04KT 5SM BR SCT010 OVC035
     FM311600 VRB04KT P6SM SCT040 OVC060=

USA.gov is the U.S. government's official web portal to all federal, state and local government web resources and services.